Latest Coastal Weather Observations for Strahan

IDT60701

Issued at 3:03 am EST Sunday 28 August 2016 (issued every 10 minutes, with the page automatically refreshed every 10 minutes)

About coastal observations | Map of coastal stations | Coastal observations for TAS | Marine services | Other Formats
Station Details ID: 097072 Name: STRAHAN AERODROME Lat: -42.16 Lon: 145.29 Height: 21.0 m
Data from the previous 72 hours. | See also: Recent months at Strahan
Date/Time
EST
Temp
°C
Wind Pressure Rain since
9am
mm
Weather Cloud Vis
km
Sea
Height
m
Swell
Dir  Spd
kts
Gust
kts
hPa Trend Height
m
Period
s
Dir
28/03:00am 5.4 S 8 10 1013.0 - 11.6 - Partly cloudy 10 - - - -
28/02:30am 6.1 S 5 8 1013.0 - 11.6 - Partly cloudy 10 - - - -
28/02:00am 6.4 SSW 8 10 1012.9 - 11.6 - Partly cloudy 10 - - - -
28/01:30am 6.5 S 10 16 1012.4 - 11.6 - Partly cloudy 10 - - - -
28/01:09am 6.9 S 13 18 1012.1 - 11.4 - Partly cloudy 9 - - - -
28/01:00am 7.1 S 12 15 1011.9 - 11.4 - Partly cloudy 10 - - - -
28/12:51am 7.0 S 11 15 1011.5 - 11.4 - Partly cloudy 10 - - - -
28/12:48am 7.1 S 11 16 1011.5 - 11.4 - Partly cloudy 10 - - - -
28/12:37am 7.2 S 11 15 1011.3 - 11.4 - Partly cloudy 5 - - - -
28/12:30am 7.2 S 13 20 1011.2 - 11.4 - Partly cloudy 7 - - - -
28/12:00am 7.6 SSW 16 21 1010.4 - 11.4 Recent precip. Cloudy 10 - - - -
 
Date/Time
EST
Temp
°C
Wind Pressure Rain since
9am
mm
Weather Cloud Vis
km
Sea
Height
m
Swell
Dir  Spd
kts
Gust
kts
hPa Trend Height
m
Period
s
Dir
27/11:45pm 8.3 WSW 14 19 1009.8 - 11.4 - Partly cloudy 10 - - - -
27/11:30pm 8.5 WSW 14 19 1009.5 - 11.2 - Partly cloudy 4 - - - -
27/11:11pm 8.9 W 16 25 1009.1 - 10.8 - Partly cloudy 5 - - - -
27/11:09pm 9.0 W 15 25 1009.1 - 10.8 - Partly cloudy 10 - - - -
27/11:08pm 9.1 W 14 24 1009.0 - 10.8 - Partly cloudy 10 - - - -
27/11:00pm 9.2 W 14 20 1008.8 - 10.8 - Partly cloudy 8 - - - -
27/10:58pm 9.2 W 15 20 1008.8 - 10.8 - Partly cloudy 8 - - - -
27/10:41pm 9.3 W 17 23 1008.4 - 10.8 - Partly cloudy 5 - - - -
27/10:38pm 9.5 W 18 23 1008.4 - 10.6 - Partly cloudy 7 - - - -
27/10:30pm 9.5 W 17 24 1008.3 - 10.6 - Partly cloudy 6 - - - -
27/10:00pm 8.7 WNW 25 36 1008.3 - 9.8 - Partly cloudy 2 - - - -
27/09:59pm 8.8 WNW 26 36 1008.4 - 9.2 - Partly cloudy 2 - - - -
27/09:57pm 9.6 NW 26 36 1008.6 - 8.6 - Partly cloudy 2 - - - -
27/09:30pm 11.1 NNW 27 42 1007.6 - 6.0 - Partly cloudy 4 - - - -
27/09:00pm 10.9 NNW 24 39 1007.8 - 4.4 Rain Cloudy 4 - - - -
27/08:42pm 11.0 NNW 23 33 1008.1 - 3.4 - Partly cloudy 5 - - - -
27/08:40pm 11.0 NNW 24 33 1008.0 - 3.4 - Partly cloudy 6 - - - -
27/08:30pm 10.9 NNW 23 32 1008.2 - 3.2 - Partly cloudy 5 - - - -
27/08:15pm 11.1 NNW 22 32 1008.4 - 2.6 - Partly cloudy 5 - - - -
27/08:12pm 11.1 NNW 22 32 1008.4 - 2.4 - Partly cloudy 6 - - - -
27/08:08pm 11.1 NNW 23 32 1008.5 - 2.4 - Partly cloudy 7 - - - -
27/08:01pm 11.0 NNW 22 32 1008.5 - 2.4 - Partly cloudy 6 - - - -
27/08:00pm 10.9 NNW 23 32 1008.5 - 2.4 - Partly cloudy 6 - - - -
27/07:46pm 11.1 NNW 20 33 1008.8 - 1.2 - Partly cloudy 5 - - - -
27/07:45pm 11.4 NNW 19 27 1008.7 - 1.0 - Partly cloudy 5 - - - -
27/07:30pm 11.7 NW 23 35 1008.9 - 0.8 - Partly cloudy 9 - - - -
27/07:19pm 11.8 NW 20 31 1009.0 - 0.8 - Partly cloudy 10 - - - -
27/07:00pm 11.6 NNW 19 25 1009.3 - 0.8 - Partly cloudy 7 - - - -
27/06:30pm 11.4 NNW 19 24 1009.3 - 0.8 - Partly cloudy 8 - - - -
27/06:00pm 11.1 NW 21 29 1009.8 - 0.8 Recent precip. Mostly cloudy 8 - - - -
27/05:56pm 11.1 NW 21 32 1009.8 - 0.8 - Partly cloudy 7 - - - -
27/05:44pm 11.2 NW 20 33 1009.7 - 0.8 - Partly cloudy 5 - - - -
27/05:40pm 11.2 NW 19 27 1009.7 - 0.8 - Partly cloudy 5 - - - -
27/05:30pm 11.9 NW 18 24 1009.8 - 0.6 - Partly cloudy 9 - - - -
27/05:12pm 11.6 NW 18 28 1010.0 - 0.6 - Partly cloudy 9 - - - -
27/05:00pm 11.7 NW 20 28 1010.2 - 0.6 - Partly cloudy 9 - - - -
27/04:42pm 11.7 NW 19 29 1010.4 - 0.6 - Partly cloudy 10 - - - -
27/04:30pm 11.5 NW 20 28 1010.4 - 0.6 - Partly cloudy 10 - - - -
27/04:00pm 11.5 NW 21 28 1010.6 - 0.6 - Partly cloudy 10 - - - -
27/03:30pm 11.1 NW 23 34 1011.1 - 0.6 - Partly cloudy 10 - - - -
27/03:09pm 10.9 NW 22 32 1010.8 - 0.6 - Partly cloudy 9 - - - -
27/03:00pm 10.6 NW 20 27 1010.9 - 0.6 Recent precip. Cloudy 6 - - - -
27/02:47pm 10.4 NW 20 30 1010.9 - 0.2 - Partly cloudy 5 - - - -
27/02:44pm 11.4 NNW 19 30 1010.8 - 0.0 - Partly cloudy 10 - - - -
27/02:30pm 11.7 NW 20 28 1010.9 - 0.0 - Partly cloudy 9 - - - -
27/02:20pm 12.0 NW 19 30 1010.8 - 0.0 - Partly cloudy 10 - - - -
27/02:00pm 12.2 NW 17 26 1011.1 - 0.0 - Partly cloudy 10 - - - -
27/01:56pm 12.1 NW 17 27 1011.2 - 0.0 - Partly cloudy 10 - - - -
27/01:30pm 11.9 NW 21 29 1011.6 - 0.0 - Partly cloudy 10 - - - -
27/01:05pm 11.9 NW 18 28 1011.9 - 0.0 - Partly cloudy 10 - - - -
27/01:00pm 12.0 NW 19 28 1011.9 - 0.0 - Partly cloudy 10 - - - -
27/12:30pm 12.3 NW 20 29 1012.3 - 0.0 - Partly cloudy 10 - - - -
27/12:00pm 10.7 NW 24 34 1012.8 - 0.0 - Cloudy 6 - - - -
27/11:50am 11.5 NW 23 35 1012.8 - 0.0 - Partly cloudy 8 - - - -
27/11:30am 12.3 NW 19 27 1012.9 - 0.0 - Cloudy 10 - - - -
27/11:01am 12.1 NW 23 33 1013.2 - 0.0 - Partly cloudy 10 - - - -
27/11:00am 12.0 NW 24 33 1013.2 - 0.0 - Partly cloudy 10 - - - -
27/10:30am 11.3 NW 21 31 1013.6 - 0.0 - Partly cloudy 10 - - - -
27/10:10am 11.1 NW 22 35 1013.8 - 0.0 - Partly cloudy 10 - - - -
27/10:00am 11.3 NW 20 27 1014.0 - 0.0 - Partly cloudy 10 - - - -
27/09:43am 10.9 NW 18 31 1014.0 - 0.0 - Partly cloudy 10 - - - -
27/09:42am 10.8 NW 18 31 1014.0 - 0.0 - Partly cloudy 10 - - - -
27/09:30am 10.0 NW 21 30 1014.1 - 0.0 - Partly cloudy 4 - - - -
27/09:26am 9.9 NW 21 30 1014.1 - 0.0 - Partly cloudy 5 - - - -
27/09:12am 10.7 NW 20 30 1013.9 - 0.0 - Partly cloudy 10 - - - -
27/09:01am 10.2 WNW 20 33 1014.0 - 0.0 - Partly cloudy 5 - - - -
27/09:00am 10.3 WNW 20 33 1014.0 - 5.6 Recent precip. Mostly cloudy 6 - - - -
27/08:52am 10.5 NW 19 33 1014.1 - 5.6 - Partly cloudy 10 - - - -
27/08:48am 10.5 NW 17 25 1014.1 - 5.6 - Partly cloudy 10 - - - -
27/08:33am 9.8 NW 18 25 1014.1 - 5.6 - Partly cloudy 5 - - - -
27/08:30am 10.2 NW 16 24 1014.2 - 5.6 - Partly cloudy 8 - - - -
27/08:04am 10.3 NW 15 26 1014.0 - 5.4 - Partly cloudy 8 - - - -
27/08:00am 10.2 NNW 15 20 1014.0 - 5.4 - Partly cloudy 10 - - - -
27/07:45am 10.1 NW 16 27 1014.0 - 5.4 - Partly cloudy 10 - - - -
27/07:30am 9.9 NNW 14 20 1014.0 - 5.4 - Partly cloudy 10 - - - -
27/07:00am 9.7 NW 16 23 1014.1 - 5.4 - Partly cloudy 10 - - - -
27/06:54am 9.7 NW 15 23 1014.0 - 5.4 - Partly cloudy 10 - - - -
27/06:37am 9.6 NW 17 26 1014.0 - 5.4 - Partly cloudy 5 - - - -
27/06:35am 9.6 NW 15 26 1014.0 - 5.4 - Partly cloudy 7 - - - -
27/06:30am 9.8 NNW 12 17 1014.0 - 5.2 - Partly cloudy 10 - - - -
27/06:12am 9.8 NW 16 24 1014.1 - 5.2 - Partly cloudy 5 - - - -
27/06:00am 9.8 NNW 12 20 1014.0 - 5.0 - Cloudy 10 - - - -
27/05:30am 9.8 NW 16 21 1014.4 - 5.0 - Partly cloudy 10 - - - -
27/05:00am 9.4 NW 13 19 1014.2 - 5.0 - Partly cloudy 10 - - - -
27/04:30am 9.1 NW 11 16 1014.2 - 5.0 - Partly cloudy 10 - - - -
27/04:00am 9.2 NNW 13 20 1014.0 - 5.0 - Partly cloudy 10 - - - -
27/03:30am 9.1 NW 13 20 1014.2 - 5.0 - Partly cloudy 10 - - - -
27/03:00am 8.9 NNW 12 17 1014.5 - 4.8 Recent precip. Cloudy 10 - - - -
27/02:30am 9.6 NW 13 17 1014.8 - 4.4 - Partly cloudy 9 - - - -
27/02:00am 9.3 NNW 9 11 1015.2 - 4.4 - Partly cloudy 10 - - - -
27/01:30am 9.2 NW 10 17 1015.4 - 4.4 - Partly cloudy 5 - - - -
27/01:29am 9.3 NNW 10 13 1015.4 - 4.4 - Partly cloudy 5 - - - -
27/01:00am 9.2 NW 11 16 1015.0 - 4.0 - Partly cloudy 10 - - - -
27/12:30am 8.8 N 9 12 1015.2 - 4.0 - Partly cloudy 6 - - - -
27/12:00am 8.7 NNW 8 10 1015.5 - 4.0 Recent precip. Partly cloudy 8 - - - -
 
Date/Time
EST
Temp
°C
Wind Pressure Rain since
9am
mm
Weather Cloud Vis
km
Sea
Height
m
Swell
Dir  Spd
kts
Gust
kts
hPa Trend Height
m
Period
s
Dir
26/11:31pm 9.0 N 7 12 1015.4 - 4.0 - Partly cloudy 10 - - - -
26/11:30pm 9.0 N 7 13 1015.4 - 4.0 - Partly cloudy 10 - - - -
26/11:28pm 9.1 NNW 7 13 1015.5 - 4.0 - Partly cloudy 9 - - - -
26/11:14pm 9.0 NNW 8 12 1015.6 - 4.0 - Partly cloudy 5 - - - -
26/11:00pm 8.5 N 7 7 1015.7 - 3.8 - Partly cloudy 9 - - - -
26/10:30pm 8.7 NW 8 9 1016.1 - 3.8 - Partly cloudy 10 - - - -
26/10:00pm 9.1 WNW 12 21 1016.2 - 3.8 - Partly cloudy 10 - - - -
26/09:59pm 9.1 WNW 11 21 1016.2 - 3.8 - Partly cloudy 10 - - - -
26/09:31pm 9.0 NW 7 10 1016.3 - 3.8 - Partly cloudy 10 - - - -
26/09:30pm 9.0 NW 7 10 1016.3 - 3.8 - Partly cloudy 10 - - - -
26/09:17pm 9.2 WNW 9 13 1016.4 - 3.8 - Partly cloudy 5 - - - -
26/09:00pm 9.2 WNW 13 18 1016.5 - 3.6 - Mostly cloudy 8 - - - -
26/08:30pm 9.4 NW 8 13 1016.3 - 3.6 - Partly cloudy 9 - - - -
26/08:00pm 9.1 NW 9 13 1016.3 - 3.6 - Partly cloudy 10 - - - -
26/07:30pm 9.0 NNW 9 11 1016.1 - 3.2 - Partly cloudy 9 - - - -
26/07:00pm 8.8 NNW 7 10 1015.9 - 3.2 - Partly cloudy 10 - - - -
26/06:30pm 9.2 NNW 10 15 1015.8 - 3.2 - Partly cloudy 10 - - - -
26/06:06pm 9.5 NNW 11 14 1015.6 - 3.2 - Partly cloudy 10 - - - -
26/06:00pm 9.5 NNW 10 14 1015.5 - 3.2 Recent precip. Cloudy 10 - - - -
26/05:47pm 9.5 NNW 11 16 1015.5 - 3.0 - Partly cloudy 5 - - - -
26/05:38pm 9.5 NNW 12 16 1015.5 - 3.0 - Partly cloudy 9 - - - -
26/05:30pm 9.6 NNW 12 16 1015.4 - 3.0 - Partly cloudy 10 - - - -
26/05:23pm 9.6 NNW 12 17 1015.3 - 3.0 - Partly cloudy 10 - - - -
26/05:00pm 9.5 NNW 9 15 1015.2 - 2.6 - Partly cloudy 5 - - - -
26/04:57pm 9.4 NNW 11 17 1015.3 - 2.6 - Partly cloudy 5 - - - -
26/04:40pm 9.7 NW 11 17 1015.2 - 2.6 - Partly cloudy 10 - - - -
26/04:39pm 9.7 NW 11 17 1015.2 - 2.6 - Partly cloudy 10 - - - -
26/04:30pm 9.9 NW 12 16 1015.2 - 2.6 - Partly cloudy 5 - - - -
26/04:00pm 9.7 NW 14 24 1015.0 - 1.2 - Partly cloudy 4 - - - -
26/03:53pm 9.7 NW 16 24 1015.1 - 1.2 - Partly cloudy 5 - - - -
26/03:30pm 10.2 NW 10 17 1015.0 - 1.2 - Partly cloudy 10 - - - -
26/03:28pm 10.2 NW 10 17 1015.0 - 1.2 - Partly cloudy 10 - - - -
26/03:07pm 9.6 WNW 14 24 1015.2 - 1.2 - Partly cloudy 5 - - - -
26/03:00pm 9.9 NW 9 13 1015.1 - 1.0 - Cloudy 10 - - - -
26/02:59pm 9.9 NW 9 12 1015.1 - 1.0 - Partly cloudy 10 - - - -
26/02:31pm 9.8 WNW 15 20 1015.2 - 1.0 - Partly cloudy 5 - - - -
26/02:30pm 9.6 WNW 15 20 1015.3 - 1.0 - Partly cloudy 6 - - - -
26/02:15pm 9.9 NW 11 19 1015.3 - 1.0 - Partly cloudy 8 - - - -
26/02:02pm 10.4 NW 11 16 1015.4 - 1.0 - Partly cloudy 5 - - - -
26/02:00pm 10.1 NW 11 16 1015.5 - 1.0 - Partly cloudy 6 - - - -
26/01:38pm 10.4 NW 14 20 1015.4 - 1.0 - Partly cloudy 10 - - - -
26/01:30pm 9.8 NW 12 22 1015.4 - 1.0 - Partly cloudy 8 - - - -
26/01:19pm 10.0 WNW 15 24 1015.5 - 0.6 - Partly cloudy 5 - - - -
26/01:07pm 10.8 NW 11 14 1015.4 - 0.6 - Partly cloudy 10 - - - -
26/01:00pm 10.9 NW 12 16 1015.6 - 0.6 - Partly cloudy 9 - - - -
26/12:30pm 9.7 W 16 24 1016.2 - 0.6 - Partly cloudy 5 - - - -
26/12:00pm 12.0 NW 13 18 1016.2 - 0.6 - Cloudy 10 - - - -
26/11:30am 11.0 NW 14 19 1016.5 - 0.6 - Partly cloudy 10 - - - -
26/11:00am 11.2 WNW 14 19 1016.4 - 0.6 - Partly cloudy 10 - - - -
26/10:30am 11.0 WNW 13 19 1016.4 - 0.6 - Partly cloudy 10 - - - -
26/10:00am 9.4 WNW 12 17 1016.6 - 0.6 - Partly cloudy 10 - - - -
26/09:44am 9.3 WNW 7 12 1016.6 - 0.6 - Partly cloudy 10 - - - -
26/09:30am 8.8 W 7 10 1016.6 - 0.6 - Partly cloudy 4 - - - -
26/09:26am 9.0 W 7 10 1016.7 - 0.4 - Partly cloudy 5 - - - -
26/09:09am 8.7 NW 8 12 1016.5 - 0.0 - Partly cloudy 10 - - - -
26/09:00am 8.5 WNW 6 11 1016.5 - 6.2 Recent precip. Cloudy 6 - - - -
26/08:34am 8.4 W 7 11 1016.6 - 4.8 - Partly cloudy 5 - - - -
26/08:30am 8.5 NW 5 9 1016.5 - 4.6 - Partly cloudy 9 - - - -
26/08:16am 7.4 NE 4 6 1016.4 - 4.4 - Partly cloudy 10 - - - -
26/08:00am 7.0 NE 6 8 1016.3 - 4.4 - Partly cloudy 3 - - - -
26/07:57am 7.0 NE 6 8 1016.3 - 4.4 - Partly cloudy 4 - - - -
26/07:53am 7.1 NE 6 7 1016.2 - 3.4 - Partly cloudy 10 - - - -
26/07:41am 7.3 N 5 7 1016.3 - 3.4 - Partly cloudy 5 - - - -
26/07:30am 7.8 NW 6 7 1016.2 - 3.0 - Partly cloudy 10 - - - -
26/07:00am 8.3 WNW 9 14 1015.9 - 2.8 - Partly cloudy 10 - - - -
26/06:30am 7.8 NNW 7 9 1015.6 - 2.8 - Partly cloudy 10 - - - -
26/06:00am 7.8 NW 7 11 1015.8 - 2.8 - Cloudy 10 - - - -
26/05:30am 7.2 NW 6 9 1015.8 - 2.8 - Partly cloudy 10 - - - -
26/05:00am 7.6 W 8 16 1015.7 - 2.8 - Partly cloudy 10 - - - -
26/04:30am 7.3 WSW 13 19 1015.8 - 2.6 - Partly cloudy 9 - - - -
26/04:00am 7.6 W 11 16 1015.5 - 2.6 - Partly cloudy 10 - - - -
26/03:30am 7.6 W 11 15 1015.6 - 2.6 - Partly cloudy 7 - - - -
26/03:00am 6.6 NW 4 8 1015.6 - 2.6 - Cloudy 10 - - - -
26/02:30am 6.4 E 5 7 1015.7 - 2.6 - Partly cloudy 10 - - - -
26/02:00am 6.7 S 2 4 1016.0 - 2.6 - Partly cloudy 7 - - - -
26/01:30am 6.0 NNE 7 8 1016.0 - 2.4 - Partly cloudy 10 - - - -
26/01:19am 5.9 NNE 6 8 1016.1 - 2.4 - Partly cloudy 10 - - - -
26/01:07am 5.8 N 5 7 1016.3 - 2.4 - Partly cloudy 5 - - - -
26/01:00am 5.8 NNE 6 8 1016.3 - 2.0 - Partly cloudy 10 - - - -
26/12:30am 6.1 N 4 5 1016.2 - 2.0 - Partly cloudy 10 - - - -
26/12:00am 6.1 NNW 5 9 1016.4 - 2.0 - Cloudy 10 - - - -
 
Date/Time
EST
Temp
°C
Wind Pressure Rain since
9am
mm
Weather Cloud Vis
km
Sea
Height
m
Swell
Dir  Spd
kts
Gust
kts
hPa Trend Height
m
Period
s
Dir
25/11:30pm 6.0 N 5 8 1016.1 - 2.0 - Partly cloudy 10 - - - -
25/11:00pm 6.1 NNE 5 6 1016.2 - 2.0 - Partly cloudy 10 - - - -
25/10:30pm 6.7 NW 3 4 1016.3 - 2.0 - Partly cloudy 10 - - - -
25/10:00pm 6.8 W 9 14 1016.5 - 2.0 - Partly cloudy 10 - - - -
25/09:30pm 6.1 W 8 11 1016.4 - 2.0 - Partly cloudy 10 - - - -
25/09:00pm 6.4 WSW 7 10 1016.6 - 2.0 Recent precip. Mostly cloudy 10 - - - -
25/08:30pm 6.8 SE 5 6 1016.4 - 2.0 - Partly cloudy 10 - - - -
25/08:00pm 7.1 W 8 11 1016.2 - 1.8 - Partly cloudy 10 - - - -
25/07:30pm 7.2 WNW 9 12 1016.1 - 1.6 - Partly cloudy 9 - - - -
25/07:00pm 7.4 SSE 6 7 1015.8 - 1.2 - Partly cloudy 10 - - - -
25/06:30pm 6.9 SW 4 6 1015.5 - 1.2 - Cloudy 10 - - - -
25/06:00pm 7.2 SSW 6 7 1015.1 - 1.2 - Partly cloudy 10 - - - -
25/05:30pm 8.4 SSW 9 12 1015.0 - 1.2 - Partly cloudy 10 - - - -
25/05:00pm 8.8 SSW 5 7 1014.6 - 1.2 - Partly cloudy 10 - - - -
25/04:30pm 9.5 SSW 5 6 1014.5 - 1.2 - Partly cloudy 10 - - - -
25/04:00pm 10.4 SSW 10 13 1014.2 - 1.2 - Cloudy 10 - - - -
25/03:30pm 10.1 SSW 10 13 1014.2 - 1.2 - Cloudy 10 - - - -
25/03:00pm 9.7 ESE 5 7 1014.2 - 1.2 - Cloudy 10 - - - -
25/02:30pm 9.4 ESE 6 8 1014.1 - 1.2 - Partly cloudy 10 - - - -
25/02:00pm 9.4 SSE 8 11 1014.0 - 1.2 - Partly cloudy 10 - - - -
25/01:30pm 9.5 SSW 9 12 1013.8 - 1.0 - Partly cloudy 10 - - - -
25/01:00pm 9.2 SSW 7 9 1013.9 - 1.0 - Partly cloudy 10 - - - -
25/12:55pm 8.9 SSW 8 13 1013.9 - 1.0 - Partly cloudy 10 - - - -
25/12:43pm 9.1 WSW 7 9 1014.0 - 1.0 - Partly cloudy 5 - - - -
25/12:35pm 9.5 W 6 8 1014.0 - 0.6 - Partly cloudy 9 - - - -
25/12:30pm 9.3 WNW 7 9 1014.0 - 0.6 - Partly cloudy 10 - - - -
25/12:16pm 9.1 WNW 7 10 1014.0 - 0.4 - Partly cloudy 5 - - - -
25/12:00pm 8.7 WNW 7 9 1014.0 - 0.4 Rain Cloudy 8 - - - -
25/11:44am 9.0 WNW 5 6 1014.0 - 0.2 - Partly cloudy 10 - - - -
25/11:30am 8.7 WNW 6 7 1014.0 - 0.2 - Partly cloudy 4 - - - -
25/11:28am 8.8 WNW 6 7 1014.0 - 0.2 - Partly cloudy 3 - - - -
25/11:00am 9.0 W 4 6 1013.9 - 0.0 - Partly cloudy 4 - - - -
25/10:56am 8.9 W 4 6 1013.9 - 0.0 - Partly cloudy 5 - - - -
25/10:33am 9.0 W 1 4 1013.7 - 0.0 - Partly cloudy 10 - - - -
25/10:30am 9.0 WSW 2 4 1013.7 - 0.0 - Partly cloudy 10 - - - -
25/10:10am 8.4 WNW 3 5 1013.6 - 0.0 - Partly cloudy 10 - - - -
25/10:00am 8.2 WNW 3 4 1013.6 - 0.0 - Partly cloudy 10 - - - -
25/09:30am 8.1 NNW 3 5 1013.4 - 0.0 - Partly cloudy 10 - - - -
25/09:00am 7.5 N 4 5 1013.3 - 8.8 Recent precip. Cloudy 10 - - - -
25/08:34am 6.2 NNE 4 5 1013.2 - 8.8 - Partly cloudy 10 - - - -
25/08:30am 6.0 NNE 3 5 1013.2 - 8.8 - Partly cloudy 10 - - - -
25/08:18am 5.5 NNE 3 4 1013.1 - 8.6 - Partly cloudy 5 - - - -
25/08:00am 5.2 NNE 3 4 1013.0 - 8.4 - Partly cloudy 7 - - - -
25/07:52am 5.1 NNE 3 5 1013.0 - 8.2 - Partly cloudy 8 - - - -
25/07:34am 4.8 NNE 1 5 1012.9 - 7.8 - Partly cloudy 5 - - - -
25/07:30am 4.7 NNE 2 5 1012.9 - 7.6 - Partly cloudy 10 - - - -
25/07:14am 4.4 NNE 7 9 1012.7 - 7.4 - Partly cloudy 9 - - - -
25/07:04am 4.2 NNE 5 8 1012.6 - 7.2 - Partly cloudy 5 - - - -
25/07:00am 4.1 NNE 3 7 1012.7 - 7.2 - Partly cloudy 7 - - - -
25/06:30am 3.6 NE 3 4 1012.4 - 6.8 - Partly cloudy 10 - - - -
25/06:00am 4.1 NNE 5 7 1012.1 - 6.8 Recent precip. Cloudy 10 - - - -
25/05:30am 4.0 NNE 4 6 1011.8 - 6.8 - Partly cloudy 10 - - - -
25/05:00am 3.6 NNW 2 3 1011.7 - 6.6 - Partly cloudy 10 - - - -
25/04:30am 3.7 ENE 4 6 1011.5 - 6.6 - Partly cloudy 10 - - - -
25/04:00am 3.8 NE 4 5 1011.3 - 6.6 - Partly cloudy 10 - - - -
25/03:30am 3.8 NNE 5 5 1011.2 - 6.6 - Partly cloudy 10 - - - -

Other Formats:

Comma delimited format used in spreadsheet applications
http://www.bom.gov.au/fwo/IDT60701/IDT60701.94956.axf

JavaScript Object Notation format (JSON) in row-major order
http://www.bom.gov.au/fwo/IDT60701/IDT60701.94956.json